createdAt,value
2022-11-24T00:01:17.683Z,7.20
2022-11-24T00:03:46.896Z,6.60
2022-11-24T00:06:17.130Z,8.43
2022-11-24T00:08:46.931Z,6.23
2022-11-24T00:11:17.423Z,7.23
2022-11-24T00:13:45.904Z,7.33
2022-11-24T00:16:15.479Z,9.47
2022-11-24T00:18:44.987Z,8.77
2022-11-24T00:21:13.548Z,9.33
2022-11-24T00:23:43.064Z,7.27
2022-11-24T00:26:13.562Z,8.57
2022-11-24T00:28:42.481Z,7.07
2022-11-24T00:31:17.913Z,6.80
2022-11-24T00:33:47.182Z,9.07
2022-11-24T00:36:16.126Z,6.40
2022-11-24T00:38:46.087Z,8.37
2022-11-24T00:41:14.408Z,7.60
2022-11-24T00:43:42.357Z,7.70
2022-11-24T00:46:10.445Z,6.23
2022-11-24T00:48:38.601Z,7.37
2022-11-24T00:51:08.838Z,6.63
2022-11-24T00:53:37.255Z,7.90
2022-11-24T00:56:07.577Z,5.80
2022-11-24T00:58:36.319Z,5.60
2022-11-24T01:01:06.023Z,7.13
2022-11-24T01:03:34.394Z,8.50
2022-11-24T01:06:06.306Z,5.97
2022-11-24T01:08:34.415Z,7.57
2022-11-24T01:11:12.347Z,7.50
2022-11-24T01:13:41.155Z,10.50
2022-11-24T01:16:15.940Z,6.33
2022-11-24T01:18:44.123Z,9.97
2022-11-24T01:21:12.275Z,7.37
2022-11-24T01:23:40.742Z,6.73
2022-11-24T01:26:11.667Z,7.00
2022-11-24T01:28:46.258Z,7.80
2022-11-24T01:31:15.995Z,7.47
2022-11-24T01:33:44.087Z,7.23
2022-11-24T01:36:12.374Z,7.20
2022-11-24T01:38:40.348Z,7.70
2022-11-24T01:41:12.261Z,7.03
2022-11-24T01:43:40.865Z,5.60
2022-11-24T01:46:17.740Z,6.43
2022-11-24T01:48:50.583Z,7.00
2022-11-24T01:51:23.230Z,6.00
2022-11-24T01:53:56.050Z,7.43
2022-11-24T01:56:25.674Z,8.03
2022-11-24T01:58:58.055Z,7.97
2022-11-24T02:01:26.551Z,7.60
2022-11-24T02:03:54.870Z,8.90
2022-11-24T02:06:26.511Z,8.37
2022-11-24T02:08:59.628Z,8.70
2022-11-24T02:11:37.242Z,6.73
2022-11-24T02:14:06.927Z,10.27
2022-11-24T02:16:36.512Z,6.23
2022-11-24T02:19:08.953Z,6.97
2022-11-24T02:21:37.063Z,6.30
2022-11-24T02:24:10.598Z,8.03
2022-11-24T02:26:44.583Z,8.40
2022-11-24T02:29:14.135Z,7.50
2022-11-24T02:31:46.850Z,6.27
2022-11-24T02:34:15.135Z,8.03
2022-11-24T02:36:43.167Z,7.67
2022-11-24T02:39:13.228Z,8.97
2022-11-24T02:41:45.804Z,6.33
2022-11-24T02:44:16.553Z,7.30
2022-11-24T02:46:44.769Z,7.10
2022-11-24T02:49:12.908Z,6.77
2022-11-24T02:51:40.909Z,8.17
2022-11-24T02:54:08.934Z,9.20
2022-11-24T02:56:36.961Z,8.87
2022-11-24T02:59:06.389Z,9.63
2022-11-24T03:01:34.433Z,7.10
2022-11-24T03:04:02.419Z,6.47
2022-11-24T03:06:30.447Z,8.40
2022-11-24T03:08:58.428Z,10.33
2022-11-24T03:11:26.532Z,9.33
2022-11-24T03:13:54.534Z,10.37
2022-11-24T03:16:24.010Z,9.77
2022-11-24T03:18:52.382Z,7.73
2022-11-24T03:21:20.573Z,9.17
2022-11-24T03:23:48.723Z,6.60
2022-11-24T03:26:19.404Z,6.40
2022-11-24T03:28:47.626Z,9.80
2022-11-24T03:31:16.336Z,6.33
2022-11-24T03:33:45.816Z,7.90
2022-11-24T03:36:13.912Z,7.27
2022-11-24T03:38:41.927Z,9.47
2022-11-24T03:41:10.418Z,6.80
2022-11-24T03:43:43.466Z,6.87
2022-11-24T03:46:12.771Z,10.37
2022-11-24T03:48:41.096Z,6.73
2022-11-24T03:51:11.821Z,7.40
2022-11-24T03:53:39.837Z,7.93
2022-11-24T03:56:08.311Z,7.10
2022-11-24T03:58:36.326Z,6.03
2022-11-24T04:01:04.386Z,8.43
2022-11-24T04:03:32.392Z,7.83
2022-11-24T04:06:00.422Z,8.33
2022-11-24T04:08:29.775Z,13.07
2022-11-24T04:10:57.798Z,10.80
2022-11-24T04:13:27.217Z,8.73
2022-11-24T04:15:55.401Z,9.47
2022-11-24T04:18:23.843Z,8.40
2022-11-24T04:20:52.634Z,10.27
2022-11-24T04:23:20.698Z,10.50
2022-11-24T04:25:50.064Z,9.53
2022-11-24T04:28:18.055Z,10.53
2022-11-24T04:30:46.035Z,9.90
2022-11-24T04:33:14.347Z,8.57
2022-11-24T04:35:42.322Z,8.60
2022-11-24T04:38:10.473Z,9.83
2022-11-24T04:40:38.972Z,9.50
2022-11-24T04:43:08.372Z,9.53
2022-11-24T04:45:36.597Z,9.93
2022-11-24T04:48:04.735Z,12.00
2022-11-24T04:50:32.764Z,11.07
2022-11-24T04:53:00.757Z,10.00
2022-11-24T04:55:28.799Z,9.43
2022-11-24T04:57:56.778Z,15.13
2022-11-24T05:00:26.184Z,10.27
2022-11-24T05:02:54.098Z,11.17
2022-11-24T05:05:22.055Z,11.33
2022-11-24T05:07:50.154Z,9.50
2022-11-24T05:10:36.631Z,11.67
2022-11-24T05:13:06.884Z,9.73
2022-11-24T05:15:37.643Z,11.53
2022-11-24T05:18:06.957Z,12.73
2022-11-24T05:20:35.449Z,12.23
2022-11-24T05:23:04.899Z,9.00
2022-11-24T05:25:33.117Z,11.77
2022-11-24T05:28:02.233Z,10.70
2022-11-24T05:30:30.495Z,10.67
2022-11-24T05:33:00.129Z,11.63
2022-11-24T05:35:28.091Z,14.63
2022-11-24T05:37:56.128Z,13.27
2022-11-24T05:40:24.126Z,12.97
2022-11-24T05:42:52.144Z,10.83
2022-11-24T05:45:22.487Z,12.10
2022-11-24T05:47:51.429Z,16.27
2022-11-24T05:50:22.652Z,16.53
2022-11-24T05:52:50.655Z,11.47
2022-11-24T05:55:20.436Z,12.70
2022-11-24T05:57:48.412Z,13.37
2022-11-24T06:00:20.080Z,9.40
2022-11-24T06:02:48.428Z,11.10
2022-11-24T06:05:16.723Z,10.30
2022-11-24T06:07:46.279Z,9.37
2022-11-24T06:10:14.568Z,10.77
2022-11-24T06:12:42.578Z,11.10
2022-11-24T06:15:11.303Z,9.70
2022-11-24T06:17:39.717Z,12.10
2022-11-24T06:20:09.628Z,12.40
2022-11-24T06:22:38.966Z,10.73
2022-11-24T06:25:09.461Z,10.80
2022-11-24T06:27:37.542Z,11.90
2022-11-24T06:30:06.662Z,11.87
2022-11-24T06:32:34.890Z,11.73
2022-11-24T06:35:03.138Z,9.07
2022-11-24T06:37:31.300Z,8.97
2022-11-24T06:39:59.598Z,9.33
2022-11-24T06:42:28.942Z,10.93
2022-11-24T06:44:56.937Z,11.73
2022-11-24T06:47:24.930Z,12.20
2022-11-24T06:49:52.904Z,9.60
2022-11-24T06:52:20.916Z,11.23
2022-11-24T06:54:48.958Z,11.93
2022-11-24T06:57:16.890Z,10.87
2022-11-24T06:59:46.273Z,10.20
2022-11-24T07:02:14.286Z,13.47
2022-11-24T07:04:42.237Z,14.13
2022-11-24T07:07:10.254Z,14.03
2022-11-24T07:09:38.332Z,12.27
2022-11-24T07:12:07.424Z,12.73
2022-11-24T07:14:36.323Z,11.67
2022-11-24T07:17:09.665Z,15.67
2022-11-24T07:19:38.284Z,14.60
2022-11-24T07:22:06.739Z,13.53
2022-11-24T07:24:35.375Z,11.50
2022-11-24T07:27:03.776Z,12.50
2022-11-24T07:29:32.055Z,12.00
2022-11-24T07:32:05.213Z,14.30
2022-11-24T07:34:35.227Z,11.83
2022-11-24T07:37:03.398Z,13.17
2022-11-24T07:39:31.465Z,12.20
2022-11-24T07:42:00.369Z,14.70
2022-11-24T07:44:28.422Z,11.60
2022-11-24T07:46:56.542Z,12.10
2022-11-24T07:49:24.580Z,14.17
2022-11-24T07:51:54.014Z,16.30
2022-11-24T07:54:22.044Z,13.10
2022-11-24T07:56:50.241Z,16.00
2022-11-24T07:59:19.350Z,13.00
2022-11-24T08:01:47.426Z,15.63
2022-11-24T08:04:15.553Z,13.63
2022-11-24T08:06:47.332Z,15.07
2022-11-24T08:09:16.907Z,10.73
2022-11-24T08:11:45.009Z,13.30
2022-11-24T08:14:13.064Z,11.70
2022-11-24T08:16:41.183Z,16.30
2022-11-24T08:19:10.905Z,14.47
2022-11-24T08:21:38.978Z,14.53
2022-11-24T08:24:08.444Z,13.47
2022-11-24T08:26:37.940Z,16.13
2022-11-24T08:29:06.066Z,16.70
2022-11-24T08:31:35.474Z,14.57
2022-11-24T08:34:05.499Z,17.00
2022-11-24T08:36:34.420Z,17.97
2022-11-24T08:39:03.289Z,17.93
2022-11-24T08:41:32.144Z,13.07
2022-11-24T08:44:01.545Z,12.97
2022-11-24T08:46:29.629Z,14.53
2022-11-24T08:48:57.810Z,18.53
2022-11-24T08:51:27.876Z,20.20
2022-11-24T08:53:58.155Z,18.97
2022-11-24T08:56:27.015Z,23.33
2022-11-24T08:58:55.123Z,16.37
2022-11-24T09:01:25.562Z,16.70
2022-11-24T09:03:53.847Z,17.87
2022-11-24T09:06:23.762Z,17.67
2022-11-24T09:08:51.992Z,19.97
2022-11-24T09:11:20.521Z,15.57
2022-11-24T09:13:48.601Z,18.03
2022-11-24T09:16:20.013Z,15.43
2022-11-24T09:18:55.793Z,15.50
2022-11-24T09:21:24.153Z,13.10
2022-11-24T09:23:54.291Z,16.47
2022-11-24T09:26:24.203Z,15.20
2022-11-24T09:28:54.566Z,23.53
2022-11-24T09:31:24.950Z,16.53
2022-11-24T09:33:55.061Z,13.00
2022-11-24T09:36:25.125Z,14.20
2022-11-24T09:38:56.882Z,16.10
2022-11-24T09:41:36.119Z,16.43
2022-11-24T09:44:10.591Z,15.17
2022-11-24T09:46:49.798Z,9.97
2022-11-24T09:49:28.055Z,19.13
2022-11-24T09:51:58.361Z,16.37
2022-11-24T09:54:29.695Z,18.10
2022-11-24T09:57:01.784Z,19.57
2022-11-24T09:59:29.959Z,19.37
2022-11-24T10:01:58.208Z,18.90
2022-11-24T10:04:31.091Z,20.03
2022-11-24T10:07:09.323Z,18.47
2022-11-24T10:09:56.112Z,19.40
2022-11-24T10:12:35.380Z,25.00
2022-11-24T10:15:18.862Z,19.97
2022-11-24T10:18:00.683Z,26.47
2022-11-24T10:20:43.323Z,23.00
2022-11-24T10:23:25.280Z,16.83
2022-11-24T10:25:57.758Z,16.37
2022-11-24T10:28:32.962Z,19.70
2022-11-24T10:31:16.975Z,19.27
2022-11-24T10:33:45.605Z,17.77
2022-11-24T10:36:21.597Z,23.67
2022-11-24T10:38:54.875Z,19.60
2022-11-24T10:41:27.521Z,19.33
2022-11-24T10:43:59.890Z,17.90
2022-11-24T10:46:31.552Z,21.27
2022-11-24T10:49:06.126Z,21.47
2022-11-24T10:51:54.055Z,21.47
2022-11-24T10:54:24.650Z,14.23
2022-11-24T10:56:54.882Z,21.63
2022-11-24T10:59:33.368Z,15.70
2022-11-24T11:02:02.058Z,17.63
2022-11-24T11:04:31.726Z,22.93
2022-11-24T11:07:17.150Z,16.73
2022-11-24T11:09:45.656Z,19.57
2022-11-24T11:12:42.913Z,21.17
2022-11-24T11:15:27.427Z,20.40
2022-11-24T11:17:59.018Z,14.53
2022-11-24T11:20:30.931Z,19.07
2022-11-24T11:23:03.177Z,18.07
2022-11-24T11:25:34.374Z,22.17
2022-11-24T11:28:28.841Z,15.57
2022-11-24T11:34:07.385Z,21.07
2022-11-24T11:36:41.607Z,21.80
2022-11-24T11:39:23.963Z,17.33
2022-11-24T11:41:56.951Z,17.37
2022-11-24T11:44:35.796Z,17.23
2022-11-24T11:47:15.077Z,17.30
2022-11-24T11:49:43.179Z,21.27
2022-11-24T11:52:41.892Z,20.17
2022-11-24T11:55:34.588Z,22.87
2022-11-24T11:58:15.999Z,15.80
2022-11-24T12:00:54.431Z,19.87
2022-11-24T12:03:47.347Z,20.67
2022-11-24T12:06:29.827Z,19.60
2022-11-24T12:09:26.275Z,16.73
2022-11-24T12:12:09.835Z,14.37
2022-11-24T12:14:45.189Z,18.77
2022-11-24T12:17:22.339Z,19.87
2022-11-24T12:20:08.318Z,18.07
2022-11-24T12:22:45.034Z,16.80
2022-11-24T12:25:24.038Z,16.90
2022-11-24T12:28:04.377Z,15.57
2022-11-24T12:30:41.561Z,23.80
2022-11-24T12:33:23.399Z,11.60
2022-11-24T12:36:03.523Z,15.03
2022-11-24T12:38:52.866Z,16.37
2022-11-24T12:41:45.521Z,14.83
2022-11-24T12:44:31.849Z,18.00
2022-11-24T12:47:13.342Z,17.10
2022-11-24T12:49:53.592Z,18.40
2022-11-24T12:52:26.789Z,17.03
2022-11-24T12:54:55.861Z,20.17
2022-11-24T12:57:30.392Z,15.10
2022-11-24T13:00:05.258Z,16.40
2022-11-24T13:02:46.356Z,14.57
2022-11-24T13:05:24.223Z,14.33
2022-11-24T13:07:58.686Z,14.07
2022-11-24T13:13:27.423Z,15.37
2022-11-24T13:19:10.752Z,13.47
2022-11-24T13:22:02.806Z,16.70
2022-11-24T13:24:33.754Z,14.40
2022-11-24T13:27:28.513Z,14.60
2022-11-24T13:29:56.594Z,14.10
2022-11-24T13:33:02.228Z,15.00
2022-11-24T13:35:30.534Z,12.27
2022-11-24T13:37:58.911Z,10.60
2022-11-24T13:40:54.291Z,16.43
2022-11-24T13:43:28.304Z,17.73
2022-11-24T13:45:56.345Z,19.50
2022-11-24T13:49:03.043Z,11.70
2022-11-24T13:51:31.030Z,17.07
2022-11-24T13:54:01.074Z,11.77
2022-11-24T13:56:31.769Z,12.13
2022-11-24T13:59:16.421Z,10.67
2022-11-24T14:01:46.847Z,11.53
2022-11-24T14:04:32.618Z,12.40
2022-11-24T14:07:08.427Z,13.73
2022-11-24T14:09:42.286Z,12.43
2022-11-24T14:12:16.009Z,11.83
2022-11-24T14:14:45.467Z,12.87
2022-11-24T14:17:19.144Z,9.40
2022-11-24T14:19:50.257Z,15.20
2022-11-24T14:22:21.212Z,10.67
2022-11-24T14:24:54.920Z,15.83
2022-11-24T14:27:31.257Z,15.50
2022-11-24T14:30:01.207Z,11.70
2022-11-24T14:32:29.540Z,16.73
2022-11-24T14:34:59.203Z,13.50
2022-11-24T14:37:27.375Z,9.63
2022-11-24T14:39:55.385Z,11.93
2022-11-24T14:42:27.165Z,16.63
2022-11-24T14:44:56.994Z,13.63
2022-11-24T14:47:31.740Z,13.50
2022-11-24T14:50:10.389Z,16.10
2022-11-24T14:52:45.700Z,18.40
2022-11-24T14:55:26.360Z,12.27
2022-11-24T14:57:54.376Z,14.17
2022-11-24T15:00:28.730Z,12.67
2022-11-24T15:03:09.113Z,10.30
2022-11-24T15:05:54.759Z,9.40
2022-11-24T15:08:24.205Z,11.87
2022-11-24T15:10:58.473Z,13.50
2022-11-24T15:13:27.086Z,13.57
2022-11-24T15:16:02.060Z,11.07
2022-11-24T15:18:37.356Z,14.20
2022-11-24T15:21:06.942Z,10.50
2022-11-24T15:23:35.842Z,12.93
2022-11-24T15:26:33.046Z,12.93
2022-11-24T15:29:03.415Z,15.63
2022-11-24T15:31:31.830Z,13.87
2022-11-24T15:33:59.852Z,15.83
2022-11-24T15:36:29.199Z,13.47
2022-11-24T15:38:57.223Z,13.77
2022-11-24T15:41:29.329Z,10.03
2022-11-24T15:43:59.923Z,17.80
2022-11-24T15:46:28.671Z,16.17
2022-11-24T15:48:57.219Z,11.30
2022-11-24T15:51:27.124Z,16.07
2022-11-24T15:54:01.014Z,11.70
2022-11-24T15:56:32.921Z,12.43
2022-11-24T15:59:01.339Z,14.87
2022-11-24T16:01:32.316Z,15.50
2022-11-24T16:04:00.497Z,17.33
2022-11-24T16:06:28.516Z,14.33
2022-11-24T16:08:59.038Z,13.23
2022-11-24T16:11:27.723Z,11.90
2022-11-24T16:13:55.777Z,14.33
2022-11-24T16:16:25.648Z,12.43
2022-11-24T16:18:53.855Z,12.23
2022-11-24T16:21:21.901Z,12.70
2022-11-24T16:23:50.046Z,12.17
2022-11-24T16:26:19.420Z,13.13
2022-11-24T16:28:47.487Z,13.93
2022-11-24T16:31:16.204Z,12.50
2022-11-24T16:33:45.489Z,13.73
2022-11-24T16:36:13.836Z,13.50
2022-11-24T16:38:41.886Z,12.57
2022-11-24T16:41:10.353Z,14.23
2022-11-24T16:43:39.983Z,11.27
2022-11-24T16:46:18.996Z,12.03
2022-11-24T16:48:48.086Z,11.30
2022-11-24T16:51:16.833Z,14.80
2022-11-24T16:53:45.376Z,13.30
2022-11-24T16:56:14.726Z,12.47
2022-11-24T16:58:44.120Z,12.47
2022-11-24T17:01:14.240Z,14.13
2022-11-24T17:03:42.919Z,17.07
2022-11-24T17:06:13.054Z,12.87
2022-11-24T17:08:41.852Z,16.27
2022-11-24T17:11:11.203Z,16.00
2022-11-24T17:13:39.974Z,17.23
2022-11-24T17:16:12.880Z,16.37
2022-11-24T17:18:41.734Z,14.97
2022-11-24T17:21:13.876Z,15.70
2022-11-24T17:23:42.441Z,17.93
2022-11-24T17:26:13.779Z,16.77
2022-11-24T17:28:42.424Z,18.47
2022-11-24T17:31:18.745Z,18.40
2022-11-24T17:33:46.768Z,23.63
2022-11-24T17:36:14.761Z,18.77
2022-11-24T17:38:42.768Z,15.50
2022-11-24T17:41:11.302Z,16.33
2022-11-24T17:43:39.477Z,18.23
2022-11-24T17:46:07.944Z,18.23
2022-11-24T17:48:37.697Z,19.70
2022-11-24T17:51:07.866Z,20.03
2022-11-24T17:53:38.117Z,17.60
2022-11-24T17:56:07.977Z,16.37
2022-11-24T17:58:42.546Z,18.27
2022-11-24T18:01:12.352Z,20.10
2022-11-24T18:03:43.371Z,19.80
2022-11-24T18:06:14.498Z,24.50
2022-11-24T18:08:45.375Z,20.03
2022-11-24T18:11:15.716Z,21.13
2022-11-24T18:14:01.482Z,18.23
2022-11-24T18:16:31.877Z,15.93
2022-11-24T18:19:11.438Z,18.37
2022-11-24T18:21:41.748Z,19.00
2022-11-24T18:24:11.970Z,17.60
2022-11-24T18:26:41.892Z,16.73
2022-11-24T18:29:11.384Z,17.53
2022-11-24T18:31:39.895Z,15.63
2022-11-24T18:34:10.486Z,15.50
2022-11-24T18:36:39.210Z,14.73
2022-11-24T18:39:09.947Z,16.03
2022-11-24T18:41:38.767Z,17.03
2022-11-24T18:44:08.756Z,18.23
2022-11-24T18:46:37.765Z,15.60
2022-11-24T18:49:07.467Z,17.30
2022-11-24T18:51:37.857Z,16.43
2022-11-24T18:54:07.153Z,14.37
2022-11-24T18:56:35.876Z,15.90
2022-11-24T18:59:04.413Z,15.40
2022-11-24T19:01:33.732Z,13.60
2022-11-24T19:04:04.388Z,15.17
2022-11-24T19:06:34.812Z,13.03
2022-11-24T19:09:08.868Z,12.57
2022-11-24T19:11:39.584Z,13.00
2022-11-24T19:14:10.804Z,12.00
2022-11-24T19:16:39.600Z,15.33
2022-11-24T19:19:08.795Z,14.03
2022-11-24T19:21:39.453Z,14.93
2022-11-24T19:24:11.244Z,11.87
2022-11-24T19:26:40.427Z,14.07
2022-11-24T19:29:09.682Z,12.10
2022-11-24T19:31:39.886Z,12.40
2022-11-24T19:34:09.033Z,12.90
2022-11-24T19:36:37.788Z,15.63
2022-11-24T19:39:06.701Z,13.10
2022-11-24T19:41:36.889Z,14.00
2022-11-24T19:44:05.556Z,13.50
2022-11-24T19:46:34.028Z,12.37
2022-11-24T19:49:04.869Z,11.83
2022-11-24T19:51:34.860Z,12.77
2022-11-24T19:54:04.193Z,14.47
2022-11-24T19:56:36.471Z,13.37
2022-11-24T19:59:06.133Z,11.13
2022-11-24T20:01:37.312Z,11.10
2022-11-24T20:04:07.248Z,10.97
2022-11-24T20:06:37.627Z,13.43
2022-11-24T20:09:08.466Z,12.03
2022-11-24T20:11:38.933Z,11.17
2022-11-24T20:14:08.438Z,15.83
2022-11-24T20:16:37.014Z,12.33
2022-11-24T20:19:07.723Z,10.70
2022-11-24T20:21:37.552Z,14.80
2022-11-24T20:24:08.174Z,10.97
2022-11-24T20:26:41.298Z,13.03
2022-11-24T20:29:11.629Z,10.83
2022-11-24T20:31:42.366Z,11.93
2022-11-24T20:34:11.237Z,14.63
2022-11-24T20:36:41.613Z,11.87
2022-11-24T20:39:13.118Z,12.67
2022-11-24T20:41:43.380Z,13.10
2022-11-24T20:44:15.422Z,15.97
2022-11-24T20:46:45.945Z,14.37
2022-11-24T20:49:16.550Z,14.20
2022-11-24T20:51:47.209Z,11.93
2022-11-24T20:54:17.657Z,13.60
2022-11-24T20:56:48.518Z,15.37
2022-11-24T20:59:19.776Z,16.00
2022-11-24T21:01:50.096Z,16.07
2022-11-24T21:04:21.095Z,14.20
2022-11-24T21:06:49.347Z,15.23
2022-11-24T21:09:17.405Z,14.20
2022-11-24T21:11:47.453Z,15.77
2022-11-24T21:14:15.838Z,11.40
2022-11-24T21:16:44.221Z,13.97
2022-11-24T21:19:13.911Z,13.60
2022-11-24T21:21:42.993Z,15.37
2022-11-24T21:24:14.087Z,16.80
2022-11-24T21:26:42.918Z,16.40
2022-11-24T21:29:14.173Z,15.40
2022-11-24T21:31:42.567Z,15.93
2022-11-24T21:34:11.068Z,13.03
2022-11-24T21:36:41.705Z,17.97
2022-11-24T21:39:13.163Z,19.33
2022-11-24T21:41:41.369Z,17.77
2022-11-24T21:44:09.449Z,15.53
2022-11-24T21:46:44.153Z,16.10
2022-11-24T21:49:15.977Z,18.67
2022-11-24T21:51:43.979Z,18.77
2022-11-24T21:54:11.938Z,17.43
2022-11-24T21:56:39.922Z,17.57
2022-11-24T21:59:08.152Z,19.53
2022-11-24T22:01:36.190Z,18.40
2022-11-24T22:04:05.899Z,17.10
2022-11-24T22:06:34.219Z,16.73
2022-11-24T22:09:02.213Z,16.97
2022-11-24T22:11:30.219Z,20.30
2022-11-24T22:13:58.226Z,16.80
2022-11-24T22:16:26.718Z,19.47
2022-11-24T22:18:54.849Z,17.33
2022-11-24T22:21:29.894Z,18.23
2022-11-24T22:23:58.022Z,20.33
2022-11-24T22:26:26.767Z,16.23
2022-11-24T22:28:55.771Z,16.93
2022-11-24T22:31:25.655Z,16.43
2022-11-24T22:33:54.738Z,17.20
2022-11-24T22:36:25.758Z,18.83
2022-11-24T22:38:55.308Z,16.60
2022-11-24T22:41:23.835Z,17.40
2022-11-24T22:43:52.573Z,16.70
2022-11-24T22:46:22.958Z,17.40
2022-11-24T22:48:52.873Z,18.73
2022-11-24T22:51:24.598Z,18.63
2022-11-24T22:53:54.163Z,18.27
2022-11-24T22:56:22.894Z,17.03
2022-11-24T22:58:51.385Z,16.13
2022-11-24T23:01:21.067Z,19.60
2022-11-24T23:03:49.815Z,16.37
2022-11-24T23:06:20.260Z,20.27
2022-11-24T23:08:50.149Z,17.97
2022-11-24T23:11:19.760Z,19.17
2022-11-24T23:13:48.353Z,18.93
2022-11-24T23:16:17.894Z,22.30
2022-11-24T23:18:52.346Z,20.07
2022-11-24T23:21:23.621Z,18.93
2022-11-24T23:23:53.451Z,18.03
2022-11-24T23:26:23.434Z,23.20
2022-11-24T23:28:51.954Z,19.47
2022-11-24T23:31:21.822Z,20.50
2022-11-24T23:33:49.866Z,20.77
2022-11-24T23:36:19.720Z,20.80
2022-11-24T23:38:48.576Z,20.23
2022-11-24T23:41:20.386Z,21.10
2022-11-24T23:43:48.616Z,17.23
2022-11-24T23:46:20.440Z,23.00
2022-11-24T23:48:49.526Z,22.27
2022-11-24T23:51:19.271Z,21.77
2022-11-24T23:53:47.797Z,22.63
2022-11-24T23:56:19.264Z,24.23
2022-11-24T23:58:47.569Z,19.37
